createdAt,value
2022-11-04T00:02:39.830Z,3.73
2022-11-04T00:07:59.085Z,4.95
2022-11-04T00:13:07.102Z,2.00
2022-11-04T00:18:17.830Z,2.00
2022-11-04T00:23:49.176Z,3.50
2022-11-04T00:28:57.066Z,2.33
2022-11-04T00:34:07.377Z,2.67
2022-11-04T00:39:15.701Z,3.53
2022-11-04T00:44:23.716Z,2.93
2022-11-04T00:49:34.028Z,1.87
2022-11-04T00:54:42.164Z,6.38
2022-11-04T00:59:50.232Z,1.85
2022-11-04T01:05:00.433Z,5.45
2022-11-04T01:10:08.328Z,2.35
2022-11-04T01:15:19.384Z,3.15
2022-11-04T01:20:29.965Z,3.63
2022-11-04T01:25:38.244Z,2.73
2022-11-04T01:30:46.139Z,1.90
2022-11-04T01:35:56.683Z,2.28
2022-11-04T01:41:04.808Z,2.45
2022-11-04T01:46:13.862Z,4.57
2022-11-04T01:51:24.681Z,2.00
2022-11-04T01:56:33.009Z,2.23
2022-11-04T02:01:40.690Z,4.05
2022-11-04T02:06:52.573Z,2.75
2022-11-04T02:12:11.995Z,3.58
2022-11-04T02:17:31.025Z,1.30
2022-11-04T02:22:59.231Z,2.92
2022-11-04T02:28:29.155Z,4.63
2022-11-04T02:33:43.748Z,2.47
2022-11-04T02:38:58.097Z,2.75
2022-11-04T02:44:13.945Z,4.00
2022-11-04T02:49:26.802Z,2.72
2022-11-04T02:54:37.539Z,7.97
2022-11-04T02:59:48.387Z,3.63
2022-11-04T03:05:00.043Z,2.20
2022-11-04T03:10:11.650Z,4.30
2022-11-04T03:20:32.912Z,2.50
2022-11-04T03:25:44.274Z,4.18
2022-11-04T03:30:54.113Z,3.80
2022-11-04T03:36:05.196Z,5.90
2022-11-04T03:41:17.175Z,1.83
2022-11-04T03:46:26.435Z,3.25
2022-11-04T03:51:37.523Z,4.03
2022-11-04T03:57:18.046Z,2.92
2022-11-04T04:02:27.645Z,2.15
2022-11-04T04:07:41.863Z,3.70
2022-11-04T04:12:49.983Z,2.17
2022-11-04T04:18:02.653Z,1.80
2022-11-04T04:23:27.501Z,4.00
2022-11-04T04:28:35.479Z,2.38
2022-11-04T04:33:44.345Z,2.00
2022-11-04T04:39:06.700Z,2.78
2022-11-04T04:49:36.187Z,5.30
2022-11-04T04:54:46.587Z,4.15
2022-11-04T04:59:54.299Z,5.18
2022-11-04T05:05:02.090Z,3.60
2022-11-04T05:10:15.993Z,4.45
2022-11-04T05:15:23.652Z,3.78
2022-11-04T05:20:33.670Z,5.55
2022-11-04T05:25:44.083Z,5.07
2022-11-04T05:30:57.247Z,3.65
2022-11-04T05:36:11.177Z,4.53
2022-11-04T05:41:26.511Z,6.60
2022-11-04T05:46:34.249Z,6.45
2022-11-04T05:51:41.699Z,5.05
2022-11-04T05:56:51.426Z,7.30
2022-11-04T06:01:58.859Z,7.05
2022-11-04T06:07:06.256Z,8.88
2022-11-04T06:12:18.976Z,11.07
2022-11-04T06:17:27.020Z,7.95
2022-11-04T06:22:34.421Z,9.65
2022-11-04T06:27:44.250Z,6.93
2022-11-04T06:32:52.074Z,9.27
2022-11-04T06:38:00.168Z,7.43
2022-11-04T06:43:10.323Z,8.07
2022-11-04T06:48:17.705Z,7.97
2022-11-04T06:53:24.902Z,7.38
2022-11-04T06:58:35.064Z,8.15
2022-11-04T07:03:41.716Z,6.00
2022-11-04T07:08:48.452Z,6.10
2022-11-04T07:13:58.369Z,6.20
2022-11-04T07:19:05.842Z,5.45
2022-11-04T07:24:12.702Z,5.82
2022-11-04T07:29:22.278Z,9.18
2022-11-04T07:34:29.352Z,8.65
2022-11-04T07:39:36.179Z,6.20
2022-11-04T07:44:45.423Z,6.50
2022-11-04T07:49:52.032Z,3.97
2022-11-04T07:54:58.711Z,6.63
2022-11-04T08:00:10.015Z,6.03
2022-11-04T08:05:16.950Z,5.53
2022-11-04T08:10:23.706Z,8.77
2022-11-04T08:15:32.962Z,11.00
2022-11-04T08:20:40.071Z,7.68
2022-11-04T08:25:46.734Z,6.22
2022-11-04T08:31:00.653Z,12.00
2022-11-04T08:36:09.818Z,11.20
2022-11-04T08:41:18.267Z,10.45
2022-11-04T08:46:27.625Z,6.45
2022-11-04T08:51:35.661Z,8.23
2022-11-04T08:56:52.202Z,11.73
2022-11-04T09:02:11.233Z,7.13
2022-11-04T09:07:27.877Z,10.40
2022-11-04T09:12:43.586Z,6.18
2022-11-04T09:18:02.276Z,6.38
2022-11-04T09:23:18.816Z,9.73
2022-11-04T09:28:33.924Z,9.20
2022-11-04T09:33:53.822Z,9.00
2022-11-04T09:39:09.124Z,7.50
2022-11-04T09:44:32.138Z,8.45
2022-11-04T09:55:08.816Z,6.82
2022-11-04T10:00:26.057Z,6.03
2022-11-04T10:06:03.682Z,7.68
2022-11-04T10:11:24.076Z,8.77
2022-11-04T10:16:56.929Z,14.70
2022-11-04T10:22:21.793Z,9.45
2022-11-04T10:27:38.554Z,17.77
2022-11-04T10:33:02.226Z,14.95
2022-11-04T10:38:26.949Z,9.18
2022-11-04T10:43:44.010Z,11.48
2022-11-04T10:49:04.877Z,10.65
2022-11-04T10:54:24.012Z,8.85
2022-11-04T10:59:47.176Z,9.65
2022-11-04T11:05:02.432Z,16.13
2022-11-04T11:10:28.020Z,19.13
2022-11-04T11:15:47.174Z,9.45
2022-11-04T11:21:17.672Z,9.77
2022-11-04T11:26:41.554Z,8.85
2022-11-04T11:32:00.741Z,7.05
2022-11-04T11:37:27.658Z,10.40
2022-11-04T11:42:51.301Z,6.93
2022-11-04T11:48:05.502Z,10.30
2022-11-04T11:53:27.837Z,8.25
2022-11-04T12:09:56.939Z,5.80
2022-11-04T12:15:35.815Z,5.93
2022-11-04T12:20:58.066Z,5.53
2022-11-04T12:26:20.904Z,4.72
2022-11-04T12:31:43.087Z,4.35
2022-11-04T12:37:06.973Z,7.20
2022-11-04T12:42:26.714Z,5.50
2022-11-04T12:47:45.918Z,8.68
2022-11-04T12:53:21.289Z,4.97
2022-11-04T12:58:50.004Z,3.83
2022-11-04T13:04:10.737Z,4.03
2022-11-04T13:09:25.873Z,4.28
2022-11-04T13:14:43.047Z,5.13
2022-11-04T13:19:58.120Z,4.30
2022-11-04T13:25:15.173Z,4.75
2022-11-04T13:30:28.022Z,3.88
2022-11-04T13:35:45.783Z,5.73
2022-11-04T13:41:11.289Z,6.78
2022-11-04T13:46:31.722Z,4.78
2022-11-04T13:51:47.145Z,4.85
2022-11-04T13:56:59.891Z,4.72
2022-11-04T14:02:46.638Z,4.80
2022-11-04T14:08:23.479Z,7.95
2022-11-04T14:13:54.505Z,4.85
2022-11-04T14:19:03.289Z,4.30
2022-11-04T14:24:17.875Z,3.33
2022-11-04T14:29:28.878Z,4.32
2022-11-04T14:34:38.649Z,7.32
2022-11-04T14:39:49.052Z,4.95
2022-11-04T14:44:56.422Z,7.72
2022-11-04T14:50:08.484Z,4.97
2022-11-04T14:55:21.785Z,4.07
2022-11-04T15:00:36.605Z,4.03
2022-11-04T15:05:50.640Z,5.75
2022-11-04T15:11:12.592Z,3.85
2022-11-04T15:16:29.496Z,4.40
2022-11-04T15:21:44.292Z,5.68
2022-11-04T15:26:59.516Z,6.05
2022-11-04T15:32:10.370Z,4.28
2022-11-04T15:37:19.071Z,5.82
2022-11-04T15:42:43.620Z,7.63
2022-11-04T15:47:51.902Z,6.95
2022-11-04T15:53:06.772Z,6.10
2022-11-04T15:58:19.797Z,9.15
2022-11-04T16:03:29.365Z,9.43
2022-11-04T16:08:38.017Z,9.93
2022-11-04T16:13:52.925Z,9.75
2022-11-04T16:19:02.040Z,9.35
2022-11-04T16:24:14.369Z,9.50
2022-11-04T16:29:27.537Z,7.72
2022-11-04T16:34:36.561Z,8.10
2022-11-04T16:39:45.716Z,9.80
2022-11-04T16:45:01.785Z,8.95
2022-11-04T16:50:18.531Z,9.25
2022-11-04T16:55:27.863Z,12.38
2022-11-04T17:00:40.035Z,12.82
2022-11-04T17:05:48.304Z,11.52
2022-11-04T17:10:56.651Z,11.68
2022-11-04T17:16:08.913Z,12.48
2022-11-04T17:21:19.947Z,9.88
2022-11-04T17:26:28.738Z,10.80
2022-11-04T17:31:39.360Z,12.82
2022-11-04T17:36:47.566Z,12.70
2022-11-04T17:42:07.354Z,11.98
2022-11-04T17:47:18.490Z,13.55
2022-11-04T17:52:27.854Z,14.15
2022-11-04T17:57:41.126Z,14.07
2022-11-04T18:02:52.111Z,14.13
2022-11-04T18:08:00.143Z,18.83
2022-11-04T18:13:08.766Z,20.45
2022-11-04T19:27:26.579Z,16.58
2022-11-04T19:32:37.971Z,12.45
2022-11-04T19:37:52.138Z,13.82
2022-11-04T19:43:16.903Z,15.32
2022-11-04T19:48:29.921Z,10.73
2022-11-04T19:53:44.253Z,10.13
2022-11-04T19:59:05.548Z,8.52
2022-11-04T20:04:22.067Z,8.63
2022-11-04T20:09:37.571Z,5.90
2022-11-04T20:14:54.473Z,5.95
2022-11-04T20:20:10.684Z,6.15
2022-11-04T20:25:23.546Z,6.88
2022-11-04T20:30:39.805Z,4.22
2022-11-04T20:35:55.263Z,4.28
2022-11-04T20:41:17.714Z,4.57
2022-11-04T20:46:35.365Z,2.72
2022-11-04T20:51:54.941Z,3.58
2022-11-04T20:57:07.095Z,3.70
2022-11-04T21:02:21.686Z,2.90
2022-11-04T21:07:34.142Z,3.67
2022-11-04T21:12:46.250Z,4.15
2022-11-04T21:18:02.140Z,2.42
2022-11-04T21:23:13.854Z,3.03
2022-11-04T21:28:30.546Z,3.33
2022-11-04T21:33:50.083Z,3.15
2022-11-04T21:39:02.843Z,3.20
2022-11-04T21:44:32.069Z,3.13
2022-11-04T21:55:01.463Z,2.85
2022-11-04T22:05:29.103Z,2.22
2022-11-04T22:10:44.242Z,2.20
2022-11-04T22:16:05.552Z,2.83
2022-11-04T22:21:24.916Z,2.90
2022-11-04T22:26:37.056Z,2.00
2022-11-04T22:31:51.326Z,2.22
2022-11-04T22:37:08.724Z,2.80
2022-11-04T22:42:21.681Z,1.58
2022-11-04T22:47:35.677Z,2.40
2022-11-04T22:52:51.796Z,1.80
2022-11-04T22:58:06.768Z,3.67
2022-11-04T23:03:19.552Z,2.08
2022-11-04T23:08:34.602Z,1.83
2022-11-04T23:13:56.936Z,2.35
2022-11-04T23:19:06.791Z,2.08
2022-11-04T23:24:31.657Z,2.03
2022-11-04T23:29:52.605Z,1.70
2022-11-04T23:35:14.429Z,1.67
2022-11-04T23:40:26.217Z,1.53
2022-11-04T23:45:47.861Z,2.30
2022-11-04T23:51:12.161Z,2.22
2022-11-04T23:56:35.547Z,2.42
